Weather at Vencerámica La Victoria Heliport

Public forecast

Using degrees Celsius for public forecast. Weather courtesy of forecast.io.

Closest aviation weather report (METAR) to Vencerámica La Victoria Heliport

Report is more than 6 hours old.

Closest report is El Libertador Airbase, 7.0 nm (13.0 km) WSW. Retrieved 2012/02/04 16:00 UTC (10 years ago):

SVBL 041600Z 09010KT 9999 BKN050 XX/XX Q1013

Closest aviation forecast (TAF) to Vencerámica La Victoria Heliport

Forecast is more than 12 hours old.

Closest forecast is Arturo Michelena International Airport, 28.7 nm (53.2 km) W. Retrieved 2021-09-23 00:57 UTC (19 hours ago):

TAF SVVA 222157Z 2200/2300 09003KT 9999 -TSDZ FEW013CB SCT016 TX33/2218Z TN22/2210Z TEMPO 2204/2210 07002KT 9999 BKN016 TEMPO 2212/2218 09005KT SCT016